Beaver Islander — WT5906 — position and weather

sailwx.info

Track history (hours):
 
Tides and Currents Weather Stations Pressure Air Temp Water Temp Dewpoint Dewpoint Depression Visibility Wind Speed Wind Dir Waves Ship Positions

Beaver Islander

Owner: BEAVER ISLAND BOAT CO, CHARLEVOIX, MI. More information available from US FCC via Universal Licensing System and Coast Guard Vessel Documentation Center.

Last reported at 2016-Jun-26 23:33 UTC. Time now 2016-Jun-27 15:06 UTC.
Position N 45°44' W 085°29'.

Length 28 m; draft 3 m.

Type: Passenger vessel. MMSI: 366936060.

Date/timePositionNaut miles runAvg speedWind from/ knotsBaromVisibWave heightAir tempDewpointWater temp
2016-Jun-26 23:33N 45°44' W 085°29'1313.1
2016-Jun-26 22:33N 45°32' W 085°22'1313.1
2016-Jun-26 21:33N 45°19' W 085°16'0 0.5
2016-Jun-26 20:32N 45°19' W 085°15'1212.5
2016-Jun-26 19:33N 45°30' W 085°22'1313.3
2016-Jun-26 18:33N 45°43' W 085°29'3 2.5
2016-Jun-26 17:32N 45°45' W 085°31'0 0.0
2016-Jun-26 16:32N 45°45' W 085°31'2 0.1
2016-Jun-25 23:33N 45°44' W 085°29'1313.1
2016-Jun-25 22:33N 45°31' W 085°23'1313.0
2016-Jun-25 21:33N 45°19' W 085°16'0 0.4
2016-Jun-25 20:33N 45°19' W 085°15'1212.4
2016-Jun-25 19:33N 45°31' W 085°22'1313.3
2016-Jun-25 18:33N 45°43' W 085°29'1 0.9
2016-Jun-25 17:33N 45°44' W 085°29'1313.1
2016-Jun-25 16:33N 45°32' W 085°22'1313.0
2016-Jun-25 15:33N 45°19' W 085°16'0 0.3
2016-Jun-25 14:33N 45°19' W 085°16'1212.1
2016-Jun-25 13:33N 45°31' W 085°22'1313.2
2016-Jun-25 12:33N 45°43' W 085°29'3 2.5
2016-Jun-25 11:32N 45°45' W 085°31'1 0.1
2016-Jun-24 23:33N 45°44' W 085°30'1313.2
2016-Jun-24 22:33N 45°32' W 085°23'1313.2
2016-Jun-24 21:33N 45°19' W 085°16'0 0.2
2016-Jun-24 20:30N 45°19' W 085°16'1212.8
2016-Jun-24 19:33N 45°31' W 085°22'1313.3
2016-Jun-24 18:34N 45°43' W 085°29'3 2.4
2016-Jun-24 17:30N 45°45' W 085°31'0 0.0
2016-Jun-24 16:33N 45°45' W 085°31'  
2016-Jun-18 23:33N 45°44' W 085°29'1313.0
2016-Jun-18 22:33N 45°32' W 085°22'1313.0
2016-Jun-18 21:33N 45°19' W 085°16'1 0.6
2016-Jun-18 20:33N 45°19' W 085°15'1212.3
2016-Jun-18 19:33N 45°30' W 085°22'1313.5
2016-Jun-18 18:33N 45°43' W 085°29'2 2.2
2016-Jun-18 17:29N 45°45' W 085°31'1 0.1
2016-Jun-17 23:33N 45°44' W 085°30'1313.1
2016-Jun-17 22:33N 45°32' W 085°23'1313.3
2016-Jun-17 21:33N 45°19' W 085°16'0 0.4
2016-Jun-17 20:33N 45°19' W 085°15'1212.5
2016-Jun-17 19:33N 45°31' W 085°22'1313.2
2016-Jun-17 18:33N 45°43' W 085°29'2 2.4
2016-Jun-17 17:33N 45°45' W 085°31'  
Track history (hours):
 
Tides and Currents Weather Stations Pressure Air Temp Water Temp Dewpoint Dewpoint Depression Visibility Wind Speed Wind Dir Waves Ship Positions

Beaver Islander

Owner: BEAVER ISLAND BOAT CO, CHARLEVOIX, MI. More information available from US FCC via Universal Licensing System and Coast Guard Vessel Documentation Center.

Last reported at 2016-Jun-26 23:33 UTC. Time now 2016-Jun-27 15:06 UTC.
Position N 45°44' W 085°29'.

Length 28 m; draft 3 m.

Type: Passenger vessel. MMSI: 366936060.

Date/timePositionNaut miles runAvg speedWind from/ knotsBaromVisibWave heightAir tempDewpointWater temp
2016-Jun-26 23:33N 45°44' W 085°29'1313.1
2016-Jun-26 22:33N 45°32' W 085°22'1313.1
2016-Jun-26 21:33N 45°19' W 085°16'0 0.5
2016-Jun-26 20:32N 45°19' W 085°15'1212.5
2016-Jun-26 19:33N 45°30' W 085°22'1313.3
2016-Jun-26 18:33N 45°43' W 085°29'3 2.5
2016-Jun-26 17:32N 45°45' W 085°31'0 0.0
2016-Jun-26 16:32N 45°45' W 085°31'2 0.1
2016-Jun-25 23:33N 45°44' W 085°29'1313.1
2016-Jun-25 22:33N 45°31' W 085°23'1313.0
2016-Jun-25 21:33N 45°19' W 085°16'0 0.4
2016-Jun-25 20:33N 45°19' W 085°15'1212.4
2016-Jun-25 19:33N 45°31' W 085°22'1313.3
2016-Jun-25 18:33N 45°43' W 085°29'1 0.9
2016-Jun-25 17:33N 45°44' W 085°29'1313.1
2016-Jun-25 16:33N 45°32' W 085°22'1313.0
2016-Jun-25 15:33N 45°19' W 085°16'0 0.3
2016-Jun-25 14:33N 45°19' W 085°16'1212.1
2016-Jun-25 13:33N 45°31' W 085°22'1313.2
2016-Jun-25 12:33N 45°43' W 085°29'3 2.5
2016-Jun-25 11:32N 45°45' W 085°31'1 0.1
2016-Jun-24 23:33N 45°44' W 085°30'1313.2
2016-Jun-24 22:33N 45°32' W 085°23'1313.2
2016-Jun-24 21:33N 45°19' W 085°16'0 0.2
2016-Jun-24 20:30N 45°19' W 085°16'1212.8
2016-Jun-24 19:33N 45°31' W 085°22'1313.3
2016-Jun-24 18:34N 45°43' W 085°29'3 2.4
2016-Jun-24 17:30N 45°45' W 085°31'0 0.0
2016-Jun-24 16:33N 45°45' W 085°31'  
2016-Jun-18 23:33N 45°44' W 085°29'1313.0
2016-Jun-18 22:33N 45°32' W 085°22'1313.0
2016-Jun-18 21:33N 45°19' W 085°16'1 0.6
2016-Jun-18 20:33N 45°19' W 085°15'1212.3
2016-Jun-18 19:33N 45°30' W 085°22'1313.5
2016-Jun-18 18:33N 45°43' W 085°29'2 2.2
2016-Jun-18 17:29N 45°45' W 085°31'1 0.1
2016-Jun-17 23:33N 45°44' W 085°30'1313.1
2016-Jun-17 22:33N 45°32' W 085°23'1313.3
2016-Jun-17 21:33N 45°19' W 085°16'0 0.4
2016-Jun-17 20:33N 45°19' W 085°15'1212.5
2016-Jun-17 19:33N 45°31' W 085°22'1313.2
2016-Jun-17 18:33N 45°43' W 085°29'2 2.4
2016-Jun-17 17:33N 45°45' W 085°31'  

Dump ship's entire track history